Time;durP1;ratioP1;P1;durP2;ratioP2;P2;SDS_P1;SDS_P2;PMS_P1;PMS_P2;Temp;Humidity;BMP_temperature;BMP_pressure;BME280_temperature;BME280_humidity;BME280_pressure;Samples;Min_cycle;Max_cycle;Signal;HPM_P1;HPM_P2
2022/03/06 00:01:19;;;;;;;13.73;8.45;;;1.30;99.90;;;;;;5051312;28;20070;-79
2022/03/06 00:03:44;;;;;;;12.75;9.63;;;1.30;99.90;;;;;;5068419;28;20041;-79
2022/03/06 00:06:13;;;;;;;14.63;9.38;;;1.60;99.90;;;;;;5050917;28;20044;-79
2022/03/06 00:08:39;;;;;;;12.48;8.50;;;1.50;99.90;;;;;;5067448;28;20049;-79
2022/03/06 00:11:04;;;;;;;12.68;10.40;;;1.50;99.90;;;;;;5067871;28;20033;-80
2022/03/06 00:13:30;;;;;;;12.55;10.10;;;1.50;99.90;;;;;;5051653;28;20133;-80
2022/03/06 00:15:56;;;;;;;14.20;9.70;;;1.60;99.90;;;;;;5068391;28;20036;-79
2022/03/06 00:18:21;;;;;;;12.63;9.10;;;1.50;99.90;;;;;;5068453;28;20052;-79
2022/03/06 00:20:47;;;;;;;11.55;8.18;;;1.60;99.90;;;;;;5051557;28;20044;-79
2022/03/06 00:23:13;;;;;;;11.95;8.82;;;1.60;99.90;;;;;;5067082;28;20139;-80
2022/03/06 00:25:38;;;;;;;13.52;8.93;;;1.60;99.90;;;;;;5068219;28;20040;-80
2022/03/06 00:28:04;;;;;;;11.85;8.35;;;1.60;99.90;;;;;;5066977;28;20123;-79
2022/03/06 00:30:30;;;;;;;10.52;8.13;;;1.70;99.90;;;;;;5050674;28;20135;-78
2022/03/06 00:32:56;;;;;;;9.18;8.25;;;1.70;99.90;;;;;;5050822;28;20190;-79
2022/03/06 00:35:22;;;;;;;11.02;8.65;;;1.70;99.90;;;;;;5067997;28;20056;-79
2022/03/06 00:37:48;;;;;;;9.30;8.10;;;1.70;99.90;;;;;;5067092;28;20048;-79
2022/03/06 00:40:14;;;;;;;13.75;8.80;;;1.30;99.90;;;;;;5067826;28;20392;-79
2022/03/06 00:42:39;;;;;;;12.35;8.38;;;1.80;99.90;;;;;;5067822;28;20078;-78
2022/03/06 00:45:06;;;;;;;10.48;7.53;;;1.80;99.90;;;;;;5068484;28;20053;-79
2022/03/06 00:47:31;;;;;;;8.98;7.25;;;1.80;99.90;;;;;;5067373;28;20507;-80
2022/03/06 00:49:57;;;;;;;10.60;7.40;;;1.80;99.90;;;;;;5066527;28;20084;-79
2022/03/06 00:52:23;;;;;;;7.90;6.78;;;1.80;99.90;;;;;;5067750;28;20040;-79
2022/03/06 00:54:49;;;;;;;9.63;7.30;;;2.00;99.90;;;;;;5067351;28;20047;-78
2022/03/06 00:57:14;;;;;;;8.48;6.65;;;1.80;99.90;;;;;;5066564;28;20372;-79
2022/03/06 00:59:40;;;;;;;8.07;7.10;;;1.80;99.90;;;;;;5050810;28;20032;-79
2022/03/06 01:02:06;;;;;;;6.63;5.90;;;1.90;99.90;;;;;;5067002;28;20056;-78
2022/03/06 01:04:33;;;;;;;7.95;6.03;;;1.90;99.90;;;;;;5050153;28;20107;-78
2022/03/06 01:06:59;;;;;;;8.13;5.47;;;2.00;99.90;;;;;;5066658;28;20066;-79
2022/03/06 01:09:25;;;;;;;6.95;5.80;;;2.00;99.90;;;;;;5067335;28;20532;-80
2022/03/06 01:11:51;;;;;;;8.45;6.20;;;2.00;99.90;;;;;;5066057;28;20131;-79
2022/03/06 01:14:17;;;;;;;8.48;5.53;;;2.00;99.90;;;;;;5067373;28;20052;-80
2022/03/06 01:16:42;;;;;;;8.45;6.00;;;1.80;99.90;;;;;;5067612;28;20553;-79
2022/03/06 01:19:08;;;;;;;10.00;5.97;;;2.40;99.90;;;;;;5049202;28;20036;-80
2022/03/06 01:21:34;;;;;;;9.52;5.53;;;2.00;99.90;;;;;;5067622;28;20060;-80
2022/03/06 01:23:59;;;;;;;12.70;6.35;;;2.00;99.90;;;;;;5066824;28;20052;-79
2022/03/06 01:26:25;;;;;;;9.73;5.68;;;2.00;99.90;;;;;;5065955;28;20504;-79
2022/03/06 01:28:51;;;;;;;8.48;5.93;;;2.60;99.90;;;;;;5050226;28;20059;-79
2022/03/06 01:31:17;;;;;;;7.72;5.60;;;1.90;99.90;;;;;;5066861;28;20052;-79
2022/03/06 01:33:43;;;;;;;9.52;6.10;;;2.00;99.90;;;;;;5066437;28;20074;-79
2022/03/06 01:36:08;;;;;;;6.95;5.60;;;2.10;99.90;;;;;;5050062;28;20131;-79
2022/03/06 01:38:34;;;;;;;9.55;6.00;;;2.10;99.90;;;;;;5050516;28;20130;-79
2022/03/06 01:41:00;;;;;;;7.75;5.10;;;2.10;99.90;;;;;;5065678;28;20407;-79
2022/03/06 01:43:25;;;;;;;10.70;6.18;;;2.30;99.90;;;;;;5066791;28;20052;-79
2022/03/06 01:45:51;;;;;;;10.43;5.63;;;2.10;99.90;;;;;;5066888;28;20441;-79
2022/03/06 01:48:17;;;;;;;9.68;5.78;;;2.50;99.90;;;;;;5065876;28;20048;-78
2022/03/06 01:50:42;;;;;;;10.02;5.82;;;2.00;99.90;;;;;;5067002;28;20068;-80
2022/03/06 01:53:09;;;;;;;8.88;5.40;;;2.30;99.90;;;;;;5065682;28;20040;-80
2022/03/06 01:55:36;;;;;;;7.22;5.30;;;2.10;99.90;;;;;;5067012;28;20090;-80
2022/03/06 01:58:04;;;;;;;8.30;6.18;;;2.10;99.90;;;;;;5066147;28;20056;-79
2022/03/06 02:00:34;;;;;;;9.57;5.40;;;2.40;99.90;;;;;;5049551;28;20419;-79
2022/03/06 02:03:00;;;;;;;8.27;6.15;;;2.40;99.90;;;;;;5066159;28;20048;-79
2022/03/06 02:05:26;;;;;;;9.63;5.75;;;2.00;99.90;;;;;;5049926;28;20037;-79
2022/03/06 02:07:51;;;;;;;9.00;6.00;;;2.10;99.90;;;;;;5065801;28;20059;-79
2022/03/06 02:10:17;;;;;;;9.23;5.57;;;3.80;99.90;;;;;;5066915;28;20128;-77
2022/03/06 02:12:44;;;;;;;9.65;5.90;;;2.00;99.90;;;;;;5066972;28;20484;-79
2022/03/06 02:15:13;;;;;;;8.60;4.85;;;2.00;99.90;;;;;;5049315;28;20032;-79
2022/03/06 02:17:39;;;;;;;10.57;5.30;;;2.20;99.90;;;;;;5066473;28;20036;-79
2022/03/06 02:20:09;;;;;;;8.70;5.32;;;2.00;99.90;;;;;;5049839;28;20095;-79
2022/03/06 02:22:37;;;;;;;8.00;5.30;;;2.00;99.90;;;;;;5066120;28;20045;-79
2022/03/06 02:25:06;;;;;;;7.90;5.13;;;2.00;99.90;;;;;;5049482;28;20046;-79
2022/03/06 02:27:35;;;;;;;6.40;4.75;;;2.00;99.90;;;;;;5050272;28;20056;-79
2022/03/06 02:30:05;;;;;;;8.07;5.80;;;2.20;99.90;;;;;;5066422;28;20097;-79
2022/03/06 02:32:31;;;;;;;7.03;4.88;;;2.00;99.90;;;;;;5070350;28;20044;-79
2022/03/06 02:34:57;;;;;;;7.82;5.13;;;1.90;99.90;;;;;;5071104;28;20040;-79
2022/03/06 02:37:22;;;;;;;10.68;4.75;;;1.90;99.90;;;;;;5068993;28;20066;-80
2022/03/06 02:39:48;;;;;;;6.88;4.57;;;2.00;99.90;;;;;;5069905;28;20048;-79
2022/03/06 02:42:24;;;;;;;6.38;4.72;;;1.90;99.90;;;;;;5070034;28;20063;-79
2022/03/06 02:44:50;;;;;;;8.98;4.40;;;2.00;99.90;;;;;;5069800;28;20052;-79
2022/03/06 02:47:16;;;;;;;6.03;4.72;;;2.50;99.90;;;;;;5069595;28;20044;-80
2022/03/06 02:49:41;;;;;;;6.45;4.63;;;1.90;99.90;;;;;;5069211;28;20385;-79
2022/03/06 02:52:09;;;;;;;5.30;4.40;;;1.90;99.90;;;;;;5070835;28;20162;-79
2022/03/06 02:54:35;;;;;;;7.32;4.18;;;2.00;99.90;;;;;;5070028;28;20112;-79
2022/03/06 02:57:00;;;;;;;6.40;3.58;;;1.90;99.90;;;;;;5068151;28;20127;-79
2022/03/06 02:59:26;;;;;;;6.88;4.25;;;1.80;99.90;;;;;;5053663;28;20047;-79
2022/03/06 03:01:52;;;;;;;6.10;3.85;;;2.30;99.90;;;;;;5061204;28;20086;-78
2022/03/06 03:04:17;;;;;;;8.13;3.58;;;1.90;99.90;;;;;;5069416;28;20130;-79
2022/03/06 03:06:45;;;;;;;7.03;3.97;;;1.60;99.90;;;;;;5052889;28;20134;-80
2022/03/06 03:09:13;;;;;;;6.15;3.53;;;1.90;99.90;;;;;;5069120;28;20080;-79
2022/03/06 03:11:38;;;;;;;5.15;3.60;;;2.00;99.90;;;;;;5052133;28;20044;-79
2022/03/06 03:14:04;;;;;;;6.18;3.35;;;2.00;99.90;;;;;;5069025;28;20043;-80
2022/03/06 03:16:29;;;;;;;6.40;3.38;;;1.90;99.90;;;;;;5069444;28;20403;-79
2022/03/06 03:18:55;;;;;;;6.55;4.25;;;1.90;99.90;;;;;;5068309;28;20476;-79
2022/03/06 03:21:20;;;;;;;6.85;3.42;;;2.00;99.90;;;;;;5052728;28;20417;-78
2022/03/06 03:23:46;;;;;;;5.25;3.42;;;1.90;99.90;;;;;;5069260;28;20044;-80
2022/03/06 03:26:14;;;;;;;7.18;4.30;;;1.90;99.90;;;;;;5068028;28;20097;-79
2022/03/06 03:28:40;;;;;;;5.00;3.22;;;1.90;99.90;;;;;;5052275;28;20041;-79
2022/03/06 03:31:06;;;;;;;5.40;3.33;;;1.90;99.90;;;;;;5052065;28;20032;-80
2022/03/06 03:33:31;;;;;;;7.50;3.80;;;3.60;99.90;;;;;;5068601;28;20377;-78
2022/03/06 03:35:57;;;;;;;5.50;3.45;;;3.00;99.90;;;;;;5068801;28;20045;-79
2022/03/06 03:38:22;;;;;;;5.82;3.60;;;1.90;99.90;;;;;;5052355;28;20120;-79
2022/03/06 03:40:48;;;;;;;4.95;3.35;;;1.90;99.90;;;;;;5067972;28;20045;-79
2022/03/06 03:43:14;;;;;;;6.18;3.45;;;2.30;99.90;;;;;;5069136;28;20048;-79
2022/03/06 03:45:40;;;;;;;7.07;3.53;;;1.90;99.90;;;;;;5068081;28;20040;-79
2022/03/06 03:48:05;;;;;;;6.60;3.70;;;1.90;99.90;;;;;;5068106;28;20041;-79
2022/03/06 03:50:31;;;;;;;6.47;3.33;;;2.10;99.90;;;;;;5070472;28;20040;-80
2022/03/06 03:52:57;;;;;;;6.88;3.30;;;1.80;99.90;;;;;;5067777;28;20066;-78
2022/03/06 03:55:22;;;;;;;5.85;3.50;;;1.80;99.90;;;;;;5069234;28;20055;-79
2022/03/06 03:57:48;;;;;;;6.25;3.03;;;1.80;99.90;;;;;;5068328;28;20396;-79
2022/03/06 04:00:14;;;;;;;3.75;3.10;;;1.80;99.90;;;;;;5067886;28;20043;-79
2022/03/06 04:02:39;;;;;;;5.18;3.42;;;1.80;99.90;;;;;;5068460;28;20036;-78
2022/03/06 04:05:05;;;;;;;5.75;3.38;;;1.70;99.90;;;;;;5051303;28;20098;-79
2022/03/06 04:07:31;;;;;;;7.13;3.42;;;1.70;99.90;;;;;;5067898;28;20099;-79
2022/03/06 04:09:56;;;;;;;7.53;3.40;;;1.70;99.90;;;;;;5059885;28;20044;-78
2022/03/06 04:12:22;;;;;;;6.13;3.90;;;1.60;99.90;;;;;;5068278;28;20050;-80
2022/03/06 04:14:48;;;;;;;5.13;2.90;;;1.60;99.90;;;;;;5067338;28;20049;-78
2022/03/06 04:17:13;;;;;;;8.23;4.45;;;2.30;99.90;;;;;;5067797;28;20385;-80
2022/03/06 04:19:39;;;;;;;7.32;3.15;;;1.50;99.90;;;;;;5069698;28;20036;-79
2022/03/06 04:22:04;;;;;;;6.55;3.40;;;1.70;99.90;;;;;;5067272;28;20051;-78
2022/03/06 04:24:30;;;;;;;4.75;3.40;;;1.60;99.90;;;;;;5051923;28;20028;-78
2022/03/06 04:26:55;;;;;;;5.95;3.92;;;1.70;99.90;;;;;;5066890;28;20127;-79
2022/03/06 04:29:21;;;;;;;7.43;3.67;;;1.50;99.90;;;;;;5050833;28;20127;-78
2022/03/06 04:31:47;;;;;;;6.97;3.58;;;1.60;99.90;;;;;;5051290;28;20041;-79
2022/03/06 04:34:13;;;;;;;6.15;3.20;;;1.60;99.90;;;;;;5067718;28;20052;-79
2022/03/06 04:36:38;;;;;;;4.43;2.97;;;1.60;99.90;;;;;;5067023;28;20039;-78
2022/03/06 04:39:04;;;;;;;7.55;3.65;;;1.60;99.90;;;;;;5067410;28;20052;-78
2022/03/06 04:41:31;;;;;;;7.90;3.60;;;1.60;99.90;;;;;;5067763;28;20043;-79
2022/03/06 04:43:57;;;;;;;7.28;3.65;;;1.50;99.90;;;;;;5066554;28;20051;-79
2022/03/06 04:46:23;;;;;;;6.47;3.92;;;1.60;99.90;;;;;;5067873;28;20515;-78
2022/03/06 04:48:49;;;;;;;8.10;3.63;;;1.50;99.90;;;;;;5067129;28;20123;-78
2022/03/06 04:51:14;;;;;;;5.60;3.50;;;1.50;99.90;;;;;;5066949;28;20056;-79
2022/03/06 04:53:40;;;;;;;6.85;3.40;;;1.40;99.90;;;;;;5067297;28;20044;-78
2022/03/06 04:56:06;;;;;;;6.53;3.38;;;2.00;99.90;;;;;;5049774;28;20472;-80
2022/03/06 04:58:31;;;;;;;5.32;3.30;;;1.50;99.90;;;;;;5067545;28;20032;-79
2022/03/06 05:00:57;;;;;;;7.32;3.88;;;1.50;99.90;;;;;;5050187;28;20038;-79
2022/03/06 05:03:23;;;;;;;6.90;3.17;;;2.30;99.90;;;;;;5050222;28;20118;-79
2022/03/06 05:05:49;;;;;;;7.82;3.55;;;1.40;99.90;;;;;;5067121;28;20496;-78
2022/03/06 05:08:15;;;;;;;7.38;3.35;;;1.40;99.90;;;;;;5068279;28;20044;-79
2022/03/06 05:10:41;;;;;;;5.60;3.55;;;1.40;99.90;;;;;;5066957;28;20457;-78
2022/03/06 05:13:07;;;;;;;7.47;3.42;;;1.40;99.90;;;;;;5067783;28;20119;-78
2022/03/06 05:15:33;;;;;;;5.80;3.60;;;1.40;99.90;;;;;;5050795;28;20129;-79
2022/03/06 05:17:59;;;;;;;6.57;3.13;;;1.30;99.90;;;;;;5049451;28;20047;-79
2022/03/06 05:20:24;;;;;;;7.40;3.35;;;1.70;99.90;;;;;;5051013;28;20040;-79
2022/03/06 05:22:50;;;;;;;7.75;3.30;;;1.70;99.90;;;;;;5050090;28;20037;-78
2022/03/06 05:25:15;;;;;;;5.95;3.67;;;1.70;99.90;;;;;;5066364;28;20037;-78
2022/03/06 05:27:41;;;;;;;5.68;3.40;;;1.30;99.90;;;;;;5066562;28;20127;-79
2022/03/06 05:30:09;;;;;;;5.55;3.08;;;1.30;99.90;;;;;;5066464;28;20500;-79
2022/03/06 05:32:34;;;;;;;10.27;3.95;;;1.30;99.90;;;;;;5049684;28;20462;-79
2022/03/06 05:35:00;;;;;;;6.15;3.55;;;3.10;99.90;;;;;;5066649;28;20135;-79
2022/03/06 05:37:25;;;;;;;7.35;3.35;;;1.20;99.90;;;;;;5050175;28;20032;-78
2022/03/06 05:39:51;;;;;;;6.95;3.42;;;1.20;99.90;;;;;;5066138;28;20079;-79
2022/03/06 05:42:17;;;;;;;8.55;3.63;;;1.20;99.90;;;;;;5068268;28;20040;-79
2022/03/06 05:44:43;;;;;;;5.45;2.78;;;1.40;99.90;;;;;;5050127;28;20037;-79
2022/03/06 05:47:09;;;;;;;7.93;3.53;;;1.20;99.90;;;;;;5065670;28;20044;-79
2022/03/06 05:49:34;;;;;;;4.43;2.97;;;1.70;99.90;;;;;;5067326;28;20041;-79
2022/03/06 05:52:00;;;;;;;5.18;3.20;;;1.00;99.90;;;;;;5066353;28;20400;-79
2022/03/06 05:54:25;;;;;;;3.65;2.65;;;1.00;99.90;;;;;;5066524;28;20182;-79
2022/03/06 05:56:51;;;;;;;5.55;3.20;;;1.20;99.90;;;;;;5049504;28;20036;-79
2022/03/06 05:59:16;;;;;;;6.68;3.28;;;1.40;99.90;;;;;;5066000;28;20113;-78
2022/03/06 06:01:42;;;;;;;6.18;2.97;;;1.10;99.90;;;;;;5066653;28;20071;-79
2022/03/06 06:04:08;;;;;;;4.68;3.00;;;1.00;99.90;;;;;;5067858;28;20051;-79
2022/03/06 06:06:33;;;;;;;5.93;3.10;;;1.10;99.90;;;;;;5070133;28;20073;-80
2022/03/06 06:08:59;;;;;;;5.95;3.20;;;0.90;99.90;;;;;;5071519;28;20098;-79
2022/03/06 06:11:25;;;;;;;9.82;3.45;;;0.40;99.90;;;;;;5071118;28;20472;-79
2022/03/06 06:13:51;;;;;;;5.22;3.00;;;1.70;99.90;;;;;;5069716;28;20045;-79
2022/03/06 06:16:17;;;;;;;7.70;3.10;;;1.60;99.90;;;;;;5070062;28;20039;-79
2022/03/06 06:18:42;;;;;;;8.55;2.80;;;1.00;99.90;;;;;;5070799;28;20630;-79
2022/03/06 06:21:10;;;;;;;7.30;3.28;;;0.90;99.90;;;;;;5069240;28;20407;-78
2022/03/06 06:23:36;;;;;;;5.82;3.15;;;0.90;99.90;;;;;;5070616;28;20044;-78
2022/03/06 06:26:02;;;;;;;6.60;3.22;;;0.90;99.90;;;;;;5053544;28;20056;-79
2022/03/06 06:28:28;;;;;;;8.02;3.50;;;0.80;99.90;;;;;;5069601;28;20079;-79
2022/03/06 06:30:53;;;;;;;4.93;3.00;;;0.80;99.90;;;;;;5053115;28;20084;-79
2022/03/06 06:33:19;;;;;;;5.32;2.88;;;0.70;99.90;;;;;;5070762;28;20396;-79
2022/03/06 06:35:44;;;;;;;6.60;3.05;;;0.80;99.90;;;;;;5052680;28;20539;-78
2022/03/06 06:38:10;;;;;;;6.30;3.10;;;0.80;99.90;;;;;;5071447;28;20036;-79
2022/03/06 06:40:35;;;;;;;7.00;3.10;;;0.90;99.90;;;;;;5070454;28;20036;-79
2022/03/06 06:43:01;;;;;;;4.90;3.22;;;2.20;99.90;;;;;;5070256;28;20040;-79
2022/03/06 06:45:27;;;;;;;4.97;3.30;;;0.80;99.90;;;;;;5053353;28;20423;-79
2022/03/06 06:47:52;;;;;;;5.55;3.25;;;0.80;99.90;;;;;;5069503;28;20044;-79
2022/03/06 06:50:18;;;;;;;4.88;3.08;;;1.40;99.90;;;;;;5069535;28;20090;-79
2022/03/06 06:52:43;;;;;;;4.38;2.63;;;0.80;99.90;;;;;;5069498;28;20419;-78
2022/03/06 06:55:09;;;;;;;7.40;2.40;;;0.70;99.90;;;;;;5071046;28;20032;-79
2022/03/06 06:57:35;;;;;;;5.25;2.88;;;0.90;99.90;;;;;;5068992;28;20090;-79
2022/03/06 07:00:02;;;;;;;5.80;3.03;;;0.70;99.90;;;;;;5069478;28;20093;-78
2022/03/06 07:02:28;;;;;;;6.15;2.50;;;0.70;99.90;;;;;;5069813;28;20072;-79
2022/03/06 07:04:53;;;;;;;3.58;2.30;;;0.70;99.90;;;;;;5068772;28;20447;-78
2022/03/06 07:07:19;;;;;;;5.68;2.55;;;0.70;99.90;;;;;;5069456;28;20150;-79
2022/03/06 07:09:44;;;;;;;5.00;2.45;;;0.70;99.90;;;;;;5069331;28;20356;-79
2022/03/06 07:12:11;;;;;;;5.47;2.42;;;0.70;99.90;;;;;;5069168;28;20119;-79
2022/03/06 07:14:37;;;;;;;3.28;2.15;;;0.90;99.90;;;;;;5069750;28;20111;-79
2022/03/06 07:17:03;;;;;;;2.28;1.95;;;0.70;99.90;;;;;;5067138;28;20059;-79
2022/03/06 07:19:29;;;;;;;6.45;2.20;;;0.70;99.90;;;;;;5052965;28;20044;-79
2022/03/06 07:21:54;;;;;;;3.00;2.42;;;0.80;99.90;;;;;;5052308;28;20059;-79
2022/03/06 07:24:20;;;;;;;3.13;1.98;;;0.90;99.90;;;;;;5069146;28;20056;-79
2022/03/06 07:26:46;;;;;;;2.53;1.55;;;0.80;99.90;;;;;;5068597;28;20058;-79
2022/03/06 07:29:11;;;;;;;4.50;2.05;;;0.80;99.90;;;;;;5068921;28;20509;-79
2022/03/06 07:31:37;;;;;;;2.00;1.40;;;1.50;99.90;;;;;;5051960;28;20037;-79
2022/03/06 07:34:03;;;;;;;1.60;1.50;;;0.20;99.90;;;;;;5068670;28;20067;-79
2022/03/06 07:36:28;;;;;;;2.97;1.77;;;0.90;99.90;;;;;;5068919;28;20431;-79
2022/03/06 07:38:54;;;;;;;2.28;1.60;;;0.80;99.90;;;;;;5051218;28;20376;-79
2022/03/06 07:41:19;;;;;;;3.45;1.45;;;0.80;99.90;;;;;;5052437;28;20087;-79
2022/03/06 07:43:45;;;;;;;1.33;0.90;;;0.80;99.90;;;;;;5052380;28;20040;-79
2022/03/06 07:46:11;;;;;;;1.88;1.40;;;0.90;99.90;;;;;;5067753;28;20045;-79
2022/03/06 07:48:37;;;;;;;1.70;1.23;;;0.90;99.90;;;;;;5068604;28;20107;-80
2022/03/06 07:51:03;;;;;;;2.38;1.30;;;1.00;99.90;;;;;;5051933;28;20056;-79
2022/03/06 07:53:28;;;;;;;2.55;1.38;;;1.60;99.90;;;;;;5068116;28;20048;-79
2022/03/06 07:55:54;;;;;;;2.88;1.35;;;1.80;99.90;;;;;;5068055;28;20048;-80
2022/03/06 07:58:20;;;;;;;3.67;1.45;;;0.90;99.90;;;;;;5051892;28;20042;-79
2022/03/06 08:00:45;;;;;;;1.95;1.52;;;1.10;99.90;;;;;;5051130;28;20028;-79
2022/03/06 08:03:11;;;;;;;1.15;0.90;;;1.20;99.90;;;;;;5051474;28;20049;-80
2022/03/06 08:05:36;;;;;;;4.68;1.08;;;2.50;99.90;;;;;;5068452;28;20040;-80
2022/03/06 08:08:02;;;;;;;3.35;1.00;;;1.30;99.90;;;;;;5067135;28;20053;-80
2022/03/06 08:10:28;;;;;;;2.70;1.70;;;1.40;99.90;;;;;;5068970;28;20144;-80
2022/03/06 08:12:55;;;;;;;4.32;1.73;;;1.90;99.90;;;;;;5067444;28;20531;-80
2022/03/06 08:15:20;;;;;;;4.03;1.20;;;1.50;99.90;;;;;;5060040;28;20037;-79
2022/03/06 08:17:46;;;;;;;2.90;1.48;;;1.40;99.90;;;;;;5051261;28;20050;-80
2022/03/06 08:20:12;;;;;;;4.00;1.35;;;1.60;99.90;;;;;;5050622;28;20726;-80
2022/03/06 08:22:37;;;;;;;2.00;1.05;;;1.50;99.90;;;;;;5051614;28;20238;-78
2022/03/06 08:25:04;;;;;;;3.10;1.00;;;1.80;99.90;;;;;;5067551;28;20052;-78
2022/03/06 08:27:32;;;;;;;1.98;1.38;;;1.80;99.90;;;;;;5050160;28;20131;-79
2022/03/06 08:29:58;;;;;;;4.20;1.50;;;2.00;99.90;;;;;;5067698;28;20040;-78
2022/03/06 08:32:23;;;;;;;2.28;1.83;;;1.80;99.90;;;;;;5051299;28;20062;-78
2022/03/06 08:34:51;;;;;;;2.60;0.95;;;2.10;99.90;;;;;;5066939;28;20048;-79
2022/03/06 08:37:18;;;;;;;7.63;1.63;;;2.10;99.90;;;;;;5067393;28;20052;-79
2022/03/06 08:39:45;;;;;;;2.17;1.27;;;2.00;99.90;;;;;;5051412;28;20048;-77
2022/03/06 08:42:10;;;;;;;4.15;1.83;;;2.00;99.90;;;;;;5067170;28;20067;-78
2022/03/06 08:44:36;;;;;;;5.72;2.28;;;2.00;99.90;;;;;;5051003;28;20032;-78
2022/03/06 08:47:02;;;;;;;1.92;1.40;;;2.00;99.90;;;;;;5066557;28;20480;-78
2022/03/06 08:49:28;;;;;;;2.88;1.30;;;2.10;99.90;;;;;;5050358;28;20036;-78
2022/03/06 08:51:54;;;;;;;4.90;1.27;;;2.20;99.90;;;;;;5067300;28;20048;-79
2022/03/06 08:54:20;;;;;;;3.17;1.00;;;2.30;99.90;;;;;;5050996;28;20076;-78
2022/03/06 08:56:46;;;;;;;4.80;1.52;;;2.40;99.90;;;;;;5066251;28;20123;-78
2022/03/06 08:59:12;;;;;;;5.32;1.27;;;2.40;99.90;;;;;;5050919;28;20163;-79
2022/03/06 09:01:38;;;;;;;2.75;1.30;;;2.40;99.90;;;;;;5050916;28;20041;-78
2022/03/06 09:04:04;;;;;;;3.92;1.10;;;2.40;99.90;;;;;;5049257;28;20051;-79
2022/03/06 09:06:29;;;;;;;3.28;1.23;;;2.40;99.90;;;;;;5067542;28;20084;-78
2022/03/06 09:08:55;;;;;;;1.63;0.85;;;2.50;99.90;;;;;;5066797;28;20055;-79
2022/03/06 09:11:20;;;;;;;3.13;0.93;;;2.60;99.90;;;;;;5067108;28;20032;-79
2022/03/06 09:13:46;;;;;;;3.00;1.10;;;2.60;99.90;;;;;;5068564;28;20051;-79
2022/03/06 09:16:11;;;;;;;3.65;0.80;;;2.60;99.90;;;;;;5066243;28;20799;-79
2022/03/06 09:18:37;;;;;;;3.42;1.17;;;2.70;99.90;;;;;;5067261;28;20040;-79
2022/03/06 09:21:03;;;;;;;3.10;1.10;;;2.70;99.90;;;;;;5066990;28;20058;-79
2022/03/06 09:23:28;;;;;;;3.65;1.08;;;2.80;99.90;;;;;;5049950;28;20037;-79
2022/03/06 09:25:54;;;;;;;3.30;0.95;;;2.80;99.90;;;;;;5067841;28;20040;-78
2022/03/06 09:28:20;;;;;;;1.55;0.70;;;2.80;99.90;;;;;;5067037;28;20061;-79
2022/03/06 09:30:46;;;;;;;3.30;1.00;;;2.80;99.90;;;;;;5066390;28;20537;-79
2022/03/06 09:33:11;;;;;;;2.05;1.13;;;2.90;99.90;;;;;;5066811;28;20040;-78
2022/03/06 09:35:37;;;;;;;3.30;1.40;;;3.00;99.90;;;;;;5067114;28;20039;-80
2022/03/06 09:38:03;;;;;;;4.47;1.05;;;3.00;99.90;;;;;;5048739;28;20344;-79
2022/03/06 09:40:29;;;;;;;2.65;1.15;;;3.10;99.90;;;;;;5050215;28;20119;-78
2022/03/06 09:42:54;;;;;;;3.38;1.20;;;3.10;99.90;;;;;;5066600;28;20127;-78
2022/03/06 09:45:23;;;;;;;1.98;0.90;;;3.00;99.90;;;;;;5049402;28;20043;-78
2022/03/06 09:47:49;;;;;;;4.78;1.23;;;3.10;99.90;;;;;;5066797;28;20085;-79
2022/03/06 09:50:15;;;;;;;4.07;1.58;;;3.00;99.90;;;;;;5066939;28;20455;-77
2022/03/06 09:52:41;;;;;;;3.95;1.45;;;3.00;99.90;;;;;;5066515;28;20043;-80
2022/03/06 09:55:07;;;;;;;2.95;1.13;;;3.10;99.90;;;;;;5066250;28;20141;-79
2022/03/06 09:57:33;;;;;;;3.25;1.15;;;3.10;99.90;;;;;;5066893;28;20506;-78
2022/03/06 09:59:59;;;;;;;2.42;1.10;;;3.10;99.90;;;;;;5049207;28;20048;-78
2022/03/06 10:02:24;;;;;;;5.50;1.80;;;3.20;99.90;;;;;;5066829;28;20070;-79
2022/03/06 10:04:52;;;;;;;5.10;1.42;;;3.20;99.90;;;;;;5066600;28;20052;-79
2022/03/06 10:07:19;;;;;;;2.78;1.52;;;2.80;99.90;;;;;;5065671;28;20403;-78
2022/03/06 10:09:46;;;;;;;3.35;1.48;;;3.30;99.90;;;;;;5068128;28;20064;-79
2022/03/06 10:12:28;;;;;;;4.88;1.48;;;3.30;99.90;;;;;;5049298;28;20080;-80
2022/03/06 10:15:05;;;;;;;6.30;1.27;;;3.30;99.90;;;;;;5065951;28;20123;-79
2022/03/06 10:17:33;;;;;;;2.17;1.27;;;3.40;99.90;;;;;;5066348;28;20098;-78
2022/03/06 10:19:58;;;;;;;3.60;1.45;;;3.40;99.90;;;;;;5065442;28;20036;-79
2022/03/06 10:22:29;;;;;;;3.25;1.30;;;3.40;99.90;;;;;;5066581;28;20045;-79
2022/03/06 10:25:06;;;;;;;2.55;1.27;;;3.50;99.90;;;;;;5066133;28;20090;-78
2022/03/06 10:27:57;;;;;;;4.88;1.15;;;3.60;99.90;;;;;;5065822;28;20504;-79
2022/03/06 10:30:41;;;;;;;2.83;1.13;;;3.60;99.90;;;;;;5049998;28;20087;-80
2022/03/06 10:33:10;;;;;;;3.38;1.42;;;3.70;99.90;;;;;;5066395;28;20496;-79
2022/03/06 10:35:39;;;;;;;4.28;1.70;;;3.80;99.90;;;;;;5057689;28;20040;-79
2022/03/06 10:38:32;;;;;;;5.40;1.52;;;3.80;99.90;;;;;;5049128;28;20514;-79
2022/03/06 10:41:17;;;;;;;5.68;2.85;;;3.90;99.90;;;;;;5043277;28;20047;-79
2022/03/06 10:43:43;;;;;;;3.78;1.20;;;4.00;99.90;;;;;;5042321;28;20075;-80
2022/03/06 10:46:16;;;;;;;3.15;2.00;;;4.00;99.90;;;;;;5066063;28;20044;-79
2022/03/06 10:48:56;;;;;;;3.72;1.90;;;4.10;99.90;;;;;;5058184;28;20510;-79
2022/03/06 10:51:22;;;;;;;3.00;1.55;;;4.20;99.90;;;;;;5067671;28;20079;-80
2022/03/06 10:53:52;;;;;;;3.63;1.52;;;4.30;99.90;;;;;;5053043;28;20088;-79
2022/03/06 10:56:18;;;;;;;3.70;1.85;;;4.40;99.90;;;;;;5068697;28;20060;-80
2022/03/06 10:58:45;;;;;;;5.78;2.00;;;4.60;99.90;;;;;;5069660;28;20048;-78
2022/03/06 11:01:12;;;;;;;3.03;1.42;;;4.60;99.90;;;;;;5071287;28;20498;-78
2022/03/06 11:03:38;;;;;;;4.68;1.52;;;4.70;99.90;;;;;;5052492;28;20045;-79
2022/03/06 11:06:05;;;;;;;3.65;1.52;;;4.80;99.90;;;;;;5068983;28;20051;-79
2022/03/06 11:08:32;;;;;;;3.10;1.50;;;4.80;99.90;;;;;;5069767;28;20140;-81
2022/03/06 11:10:59;;;;;;;8.88;1.77;;;4.90;99.90;;;;;;5068252;28;20044;-79
2022/03/06 11:13:26;;;;;;;7.00;1.48;;;5.00;99.90;;;;;;5052920;28;20492;-79
2022/03/06 11:15:52;;;;;;;1.40;1.00;;;5.00;99.90;;;;;;5068621;28;20033;-79
2022/03/06 11:18:19;;;;;;;2.25;1.40;;;5.10;99.90;;;;;;5052618;28;20469;-80
2022/03/06 11:20:45;;;;;;;4.18;1.50;;;5.10;99.90;;;;;;5069521;28;20044;-78
2022/03/06 11:23:34;;;;;;;4.55;1.67;;;5.60;99.90;;;;;;5068632;28;20051;-79
2022/03/06 11:26:09;;;;;;;2.83;1.30;;;5.30;99.90;;;;;;5062529;28;20336;-79
2022/03/06 11:28:44;;;;;;;;;;;5.40;99.90;;;;;;5070189;28;20060;-80
2022/03/06 11:31:10;;;;;;;4.03;1.60;;;5.50;99.90;;;;;;5068256;28;20392;-79
2022/03/06 11:33:52;;;;;;;3.13;1.70;;;5.50;99.90;;;;;;5052505;28;20044;-80
2022/03/06 11:36:21;;;;;;;1.73;1.30;;;5.50;99.90;;;;;;5052687;28;20437;-79
2022/03/06 11:38:48;;;;;;;4.00;1.92;;;5.60;99.90;;;;;;5060233;28;20501;-81
2022/03/06 11:41:15;;;;;;;3.10;1.75;;;5.60;99.90;;;;;;5068732;28;20091;-80
2022/03/06 11:43:48;;;;;;;5.38;1.45;;;5.70;99.90;;;;;;5052441;28;20418;-80
2022/03/06 11:46:25;;;;;;;4.10;1.60;;;5.70;99.90;;;;;;5066977;28;20049;-79
2022/03/06 11:48:50;;;;;;;3.05;1.73;;;5.70;99.90;;;;;;5045182;28;20051;-80
2022/03/06 11:51:27;;;;;;;4.82;1.60;;;5.80;99.90;;;;;;5068371;28;20396;-81
2022/03/06 11:53:52;;;;;;;2.70;1.65;;;5.80;99.90;;;;;;5060988;28;20056;-79
2022/03/06 11:59:24;;;;;;;3.17;1.60;;;5.80;99.90;;;;;;5094760;28;20063;-80
2022/03/06 12:01:52;;;;;;;5.05;1.67;;;4.40;99.90;;;;;;5094281;28;20462;-79
2022/03/06 12:04:26;;;;;;;5.30;1.98;;;5.90;99.90;;;;;;5052186;28;20043;-79
2022/03/06 12:07:09;;;;;;;2.85;1.88;;;5.90;99.90;;;;;;5059475;28;20095;-80
2022/03/06 12:09:38;;;;;;;3.42;1.50;;;5.90;99.90;;;;;;5068890;28;20049;-81
2022/03/06 12:12:15;;;;;;;4.25;1.40;;;5.90;99.90;;;;;;5067191;28;20049;-80
2022/03/06 12:14:53;;;;;;;6.32;1.98;;;5.90;99.90;;;;;;5068717;28;20128;-79
2022/03/06 12:17:30;;;;;;;3.97;1.80;;;6.00;99.90;;;;;;5068712;28;20044;-78
2022/03/06 12:19:56;;;;;;;2.38;2.08;;;6.00;99.90;;;;;;5060214;28;20041;-81
2022/03/06 12:22:28;;;;;;;4.22;1.67;;;5.90;99.90;;;;;;5069017;28;20120;-80
2022/03/06 12:25:06;;;;;;;3.28;1.90;;;6.00;99.90;;;;;;5059971;28;20044;-79
2022/03/06 12:27:32;;;;;;;5.28;1.45;;;6.00;99.90;;;;;;5050329;28;20064;-79
2022/03/06 12:30:00;;;;;;;3.63;1.30;;;6.00;99.90;;;;;;5067763;28;20480;-78
2022/03/06 12:32:26;;;;;;;2.53;1.38;;;6.00;99.90;;;;;;5065389;28;20047;-80
2022/03/06 12:35:02;;;;;;;4.03;1.20;;;6.10;99.90;;;;;;5059225;28;20044;-79
2022/03/06 12:37:40;;;;;;;6.63;1.65;;;6.10;99.90;;;;;;5051486;28;20139;-80
2022/03/06 12:40:19;;;;;;;1.15;1.00;;;6.10;99.90;;;;;;5068051;28;20431;-78
2022/03/06 12:42:49;;;;;;;1.52;1.40;;;6.20;99.90;;;;;;5067638;28;20036;-81
2022/03/06 12:45:19;;;;;;;3.28;1.52;;;6.30;99.90;;;;;;5067654;28;20041;-79
2022/03/06 12:47:46;;;;;;;2.38;1.40;;;6.30;99.90;;;;;;5067049;28;20115;-80
2022/03/06 12:50:16;;;;;;;4.10;1.13;;;6.40;99.90;;;;;;5067711;28;20114;-79
2022/03/06 12:52:43;;;;;;;1.20;1.02;;;6.40;99.90;;;;;;5067111;28;20135;-80
2022/03/06 12:55:14;;;;;;;4.32;1.40;;;6.50;99.90;;;;;;5050590;28;20040;-79
2022/03/06 12:57:42;;;;;;;3.20;1.50;;;6.50;99.90;;;;;;5051045;28;20033;-82